Time;durP1;ratioP1;P1;durP2;ratioP2;P2;SDS_P1;SDS_P2;PMS_P1;PMS_P2;Temp;Humidity;BMP_temperature;BMP_pressure;BME280_temperature;BME280_humidity;BME280_pressure;Samples;Min_cycle;Max_cycle;Signal;HPM_P1;HPM_P2
2023/03/28 00:01:35;;;;;;;4.90;3.88;;;;;;;12.92;74.43;99757.53;5094731;28;20508;-89
2023/03/28 00:04:03;;;;;;;3.97;3.38;;;;;;;13.09;74.64;99795.56;5096057;28;20068;-90
2023/03/28 00:06:30;;;;;;;4.28;3.72;;;;;;;12.97;74.87;99777.75;5113475;28;20020;-89
2023/03/28 00:08:56;;;;;;;6.00;4.18;;;;;;;12.86;74.85;99762.59;5095381;28;20023;-90
2023/03/28 00:11:23;;;;;;;5.07;3.80;;;;;;;13.10;74.81;99804.31;5078595;28;20057;-89
2023/03/28 00:13:56;;;;;;;5.65;4.70;;;;;;;13.07;74.66;99810.38;5067937;28;20036;-89
2023/03/28 00:16:24;;;;;;;4.72;4.13;;;;;;;13.02;74.85;99805.00;5088854;28;20103;-89
2023/03/28 00:18:50;;;;;;;5.65;3.90;;;;;;;12.92;74.82;99783.72;5067885;28;20036;-89
2023/03/28 00:21:31;;;;;;;4.90;3.85;;;;;;;12.94;74.99;99792.53;5077301;28;20066;-88
2023/03/28 00:24:00;;;;;;;4.85;3.70;;;;;;;13.06;74.84;99824.34;5078242;28;20034;-90
2023/03/28 00:26:27;;;;;;;4.82;3.63;;;;;;;13.07;74.97;99839.19;5095628;28;20083;-88
2023/03/28 00:28:54;;;;;;;5.82;3.95;;;;;;;12.95;74.59;99813.53;5094910;28;20563;-88
2023/03/28 00:31:20;;;;;;;5.03;3.70;;;;;;;13.06;74.82;99829.56;5095045;28;20091;-89
2023/03/28 00:33:46;;;;;;;4.22;3.80;;;;;;;12.95;75.01;99815.25;5081257;28;20032;-89
2023/03/28 00:36:25;;;;;;;4.75;3.88;;;;;;;13.06;74.92;99831.28;5093933;28;20620;-89
2023/03/28 00:38:52;;;;;;;5.55;3.95;;;;;;;13.03;74.74;99827.72;5095969;28;20038;-88
2023/03/28 00:41:20;;;;;;;4.35;3.60;;;;;;;13.02;75.03;99825.97;5095246;28;20102;-89
2023/03/28 00:43:56;;;;;;;5.05;3.85;;;;;;;12.58;75.07;99752.19;5094841;28;20058;-89
2023/03/28 00:46:28;;;;;;;4.38;3.80;;;;;;;13.02;74.90;99819.84;5074518;28;20508;-89
2023/03/28 00:49:11;;;;;;;5.05;3.97;;;;;;;12.94;75.17;99823.97;5096383;28;20027;-88
2023/03/28 00:51:40;;;;;;;5.35;4.03;;;;;;;12.96;74.88;99807.44;5089771;28;20027;-89
2023/03/28 00:54:08;;;;;;;5.25;4.10;;;;;;;12.94;75.10;99813.50;5057680;28;20035;-88
2023/03/28 00:56:36;;;;;;;4.85;3.80;;;;;;;12.69;74.97;99770.84;5088134;28;20176;-89
2023/03/28 00:59:05;;;;;;;5.70;4.07;;;;;;;12.87;75.14;99803.66;5094586;28;20023;-89
2023/03/28 01:01:31;;;;;;;5.05;3.67;;;;;;;12.81;75.08;99801.75;5094600;28;20026;-88
2023/03/28 01:04:04;;;;;;;5.22;4.20;;;;;;;12.88;74.93;99813.31;5094625;28;20419;-89
2023/03/28 01:06:31;;;;;;;4.80;3.70;;;;;;;13.00;75.19;99835.53;5095016;28;20037;-89
2023/03/28 01:08:59;;;;;;;4.50;3.97;;;;;;;12.99;74.90;99830.22;5094407;28;20099;-89
2023/03/28 01:11:26;;;;;;;3.95;3.50;;;;;;;12.94;75.09;99814.38;5111050;28;20124;-89
2023/03/28 01:13:52;;;;;;;6.93;4.07;;;;;;;12.90;75.01;99806.38;5094309;28;20035;-89
2023/03/28 01:16:19;;;;;;;4.82;3.85;;;;;;;12.91;75.02;99809.06;5075420;28;20031;-89
2023/03/28 01:18:50;;;;;;;5.13;4.00;;;;;;;12.80;74.90;99787.75;5068654;28;20561;-89
2023/03/28 01:21:41;;;;;;;4.40;3.92;;;;;;;12.99;75.08;99811.88;5110276;28;20055;-89
2023/03/28 01:24:10;;;;;;;5.72;3.70;;;;;;;12.98;74.85;99813.63;5093876;28;20504;-89
2023/03/28 01:27:00;;;;;;;5.78;4.00;;;;;;;12.98;74.92;99820.59;5111004;28;20464;-90
2023/03/28 01:30:00;;;;;;;4.53;3.90;;;;;;;12.97;75.05;99810.94;5098505;28;20110;-89
2023/03/28 01:32:45;;;;;;;4.43;3.90;;;;;;;12.97;75.02;99824.94;5111890;28;20107;-90
2023/03/28 01:35:47;;;;;;;5.50;4.13;;;;;;;12.94;75.23;99811.75;5111711;28;20055;-89
2023/03/28 01:38:27;;;;;;;4.72;3.53;;;;;;;12.96;75.30;99817.03;5103315;28;20059;-89
2023/03/28 01:41:21;;;;;;;4.97;4.18;;;;;;;12.96;74.96;99823.16;5080529;28;20051;-90
2023/03/28 01:44:08;;;;;;;4.40;3.78;;;;;;;12.82;75.24;99803.53;5097364;28;20489;-89
2023/03/28 01:47:00;;;;;;;6.38;4.10;;;;;;;12.89;75.23;99820.31;5101683;28;20023;-90
2023/03/28 01:49:31;;;;;;;5.03;4.10;;;;;;;12.86;75.28;99812.38;5098547;28;20020;-89
2023/03/28 01:52:02;;;;;;;5.07;4.25;;;;;;;12.92;74.95;99826.53;5110861;28;20027;-90
2023/03/28 01:54:42;;;;;;;5.72;3.90;;;;;;;12.96;75.00;99835.38;5092984;28;20143;-89
2023/03/28 01:57:37;;;;;;;3.90;3.50;;;;;;;12.92;75.25;99831.78;5108474;28;20085;-90
2023/03/28 02:00:12;;;;;;;5.45;4.15;;;;;;;12.90;75.36;99825.59;5057601;28;20040;-89
2023/03/28 02:02:42;;;;;;;5.70;3.90;;;;;;;12.79;75.33;99806.94;5100261;28;20020;-89
2023/03/28 02:05:11;;;;;;;4.95;4.18;;;;;;;12.82;75.25;99820.13;5078651;28;20061;-88
2023/03/28 02:07:39;;;;;;;4.35;3.70;;;;;;;12.71;75.26;99805.84;5076546;28;20381;-89
2023/03/28 02:10:06;;;;;;;6.30;3.80;;;;;;;12.77;75.23;99815.63;5093220;28;20066;-90
2023/03/28 02:13:01;;;;;;;4.97;4.40;;;;;;;12.69;75.22;99802.28;5093310;28;20172;-89
2023/03/28 02:15:29;;;;;;;4.18;3.65;;;;;;;12.96;75.24;99866.84;5102006;28;20069;-89
2023/03/28 02:18:00;;;;;;;4.93;3.70;;;;;;;12.93;75.13;99865.00;5093053;28;20058;-89
2023/03/28 02:20:28;;;;;;;4.13;3.67;;;;;;;12.92;75.05;99865.84;5093426;28;20511;-89
2023/03/28 02:23:02;;;;;;;4.72;3.70;;;;;;;12.94;75.04;99879.00;5092979;28;20024;-89
2023/03/28 02:25:30;;;;;;;5.53;3.78;;;;;;;12.89;74.86;99867.47;5075817;28;20027;-89
2023/03/28 02:28:00;;;;;;;5.65;3.80;;;;;;;12.80;75.01;99868.09;5064176;28;20484;-89
2023/03/28 02:30:27;;;;;;;5.38;3.83;;;;;;;12.88;75.10;99884.94;5078117;28;20036;-89
2023/03/28 02:33:00;;;;;;;4.93;3.97;;;;;;;12.95;75.14;99896.47;5083817;28;20122;-90
2023/03/28 02:35:58;;;;;;;4.57;3.83;;;;;;;12.84;75.04;99881.31;5096942;28;20054;-89
2023/03/28 02:38:55;;;;;;;4.70;3.63;;;;;;;12.92;75.22;99899.91;5083301;28;20494;-90
2023/03/28 02:41:39;;;;;;;5.80;3.97;;;;;;;12.93;74.81;99906.94;5067979;28;20038;-89
2023/03/28 02:44:19;;;;;;;4.10;3.70;;;;;;;12.92;74.88;99904.25;5101466;28;20027;-90
2023/03/28 02:46:54;;;;;;;3.83;3.50;;;;;;;12.78;75.11;99881.16;5093794;28;20512;-90
2023/03/28 02:49:40;;;;;;;4.45;3.85;;;;;;;12.74;74.88;99884.53;5086171;28;20028;-89
2023/03/28 02:52:24;;;;;;;3.90;3.50;;;;;;;12.93;74.90;99912.19;5096569;28;20089;-90
2023/03/28 02:54:56;;;;;;;5.20;3.95;;;;;;;12.83;74.76;99905.75;5093739;28;20030;-89
2023/03/28 02:57:47;;;;;;;5.15;3.38;;;;;;;12.71;75.04;99894.00;5076682;28;20035;-89
2023/03/28 03:00:17;;;;;;;3.92;3.50;;;;;;;12.87;75.21;99932.94;5096308;28;20089;-89
2023/03/28 03:02:46;;;;;;;4.32;3.75;;;;;;;12.88;75.59;99945.19;5099839;28;20107;-90
2023/03/28 03:05:13;;;;;;;4.38;3.70;;;;;;;12.72;75.39;99919.34;5092402;28;20556;-89
2023/03/28 03:07:40;;;;;;;4.13;3.53;;;;;;;12.83;75.14;99929.34;5071771;28;20036;-89
2023/03/28 03:10:10;;;;;;;3.80;3.38;;;;;;;12.87;75.51;99940.81;5077685;28;20484;-90
2023/03/28 03:12:37;;;;;;;5.68;3.80;;;;;;;12.71;75.91;99915.84;5072624;28;20543;-88
2023/03/28 03:15:04;;;;;;;4.32;3.65;;;;;;;12.88;75.69;99939.97;5095535;28;20071;-89
2023/03/28 03:17:30;;;;;;;3.83;3.40;;;;;;;12.77;75.58;99920.41;5096323;28;20031;-89
2023/03/28 03:19:56;;;;;;;4.78;3.75;;;;;;;12.81;75.86;99935.38;5100720;28;20031;-89
2023/03/28 03:22:22;;;;;;;4.43;3.72;;;;;;;12.66;75.55;99912.22;5114355;28;20059;-89
2023/03/28 03:24:49;;;;;;;3.53;3.22;;;;;;;12.74;75.35;99930.75;5087243;28;20059;-89
2023/03/28 03:27:18;;;;;;;4.72;3.30;;;;;;;12.60;75.67;99907.66;5095088;28;20031;-88
2023/03/28 03:29:45;;;;;;;4.10;3.70;;;;;;;12.65;75.59;99926.13;5099785;28;20200;-89
2023/03/28 03:32:11;;;;;;;;;;;;;;;12.88;75.36;99963.53;5113565;28;20031;-88
2023/03/28 03:34:40;;;;;;;4.28;3.55;;;;;;;12.80;75.42;99957.16;5111504;28;20018;-89
2023/03/28 03:37:07;;;;;;;3.50;3.20;;;;;;;12.83;75.24;99968.63;5099437;28;20056;-89
2023/03/28 03:39:34;;;;;;;5.47;3.90;;;;;;;12.61;75.48;99932.09;5076514;28;20089;-89
2023/03/28 03:42:01;;;;;;;4.47;3.30;;;;;;;12.82;75.71;99969.47;5106698;28;20051;-90
2023/03/28 03:44:28;;;;;;;5.03;3.50;;;;;;;12.57;75.61;99928.53;5112887;28;20055;-88
2023/03/28 03:46:54;;;;;;;3.58;3.22;;;;;;;12.68;75.13;99952.44;5114387;28;20055;-88
2023/03/28 03:49:20;;;;;;;3.92;3.45;;;;;;;12.51;75.33;99927.41;5109288;28;20111;-89
2023/03/28 03:51:46;;;;;;;4.18;3.40;;;;;;;12.86;75.14;99994.03;5111727;28;20063;-89
2023/03/28 03:54:12;;;;;;;3.95;3.40;;;;;;;12.59;75.50;99945.19;5092330;28;20060;-90
2023/03/28 03:56:38;;;;;;;4.65;3.15;;;;;;;12.48;75.38;99932.56;5093169;28;20036;-89
2023/03/28 03:59:04;;;;;;;3.67;3.25;;;;;;;12.68;75.23;99978.63;5087733;28;20495;-88
2023/03/28 04:01:30;;;;;;;4.00;3.20;;;;;;;12.83;75.22;100010.56;5093225;28;20538;-89
2023/03/28 04:03:56;;;;;;;4.15;3.30;;;;;;;12.59;74.66;99971.38;5104393;28;20571;-89
2023/03/28 04:06:23;;;;;;;4.05;3.47;;;;;;;12.87;75.18;100028.97;5094922;28;20490;-89
2023/03/28 04:08:50;;;;;;;3.35;3.05;;;;;;;12.71;75.04;100009.28;5112958;28;20027;-89
2023/03/28 04:11:16;;;;;;;3.88;3.30;;;;;;;12.52;75.36;99982.47;5098716;28;20110;-88
2023/03/28 04:13:43;;;;;;;3.53;3.13;;;;;;;12.51;74.79;99982.41;5111758;28;20046;-89
2023/03/28 04:16:10;;;;;;;3.20;2.90;;;;;;;12.60;75.14;100006.28;5111940;28;20032;-88
2023/03/28 04:18:36;;;;;;;3.85;3.45;;;;;;;12.79;74.57;100050.59;5112396;28;20062;-89
2023/03/28 04:21:02;;;;;;;3.40;3.10;;;;;;;12.74;74.19;100033.84;5113171;28;20477;-88
2023/03/28 04:23:27;;;;;;;3.42;3.13;;;;;;;12.70;74.63;100029.34;5086389;28;20088;-89
2023/03/28 04:25:56;;;;;;;3.40;3.10;;;;;;;12.76;73.90;100041.72;5099331;28;20023;-89
2023/03/28 04:28:27;;;;;;;3.03;2.72;;;;;;;12.75;74.70;100053.06;5102051;28;20032;-89
2023/03/28 04:30:57;;;;;;;2.92;2.63;;;;;;;12.78;74.77;100053.16;5091981;28;20071;-89
2023/03/28 04:33:24;;;;;;;3.75;3.13;;;;;;;12.77;74.87;100051.38;5091820;28;20028;-90
2023/03/28 04:35:58;;;;;;;3.72;3.20;;;;;;;12.66;75.29;100043.19;5109584;28;20048;-89
2023/03/28 04:38:30;;;;;;;4.70;2.85;;;;;;;12.75;74.75;100071.41;5111476;28;20023;-89
2023/03/28 04:40:57;;;;;;;3.42;2.95;;;;;;;12.62;74.92;100041.28;5110061;28;20031;-89
2023/03/28 04:43:26;;;;;;;3.95;3.25;;;;;;;12.73;74.99;100060.88;5112082;28;20030;-89
2023/03/28 04:45:53;;;;;;;4.30;2.78;;;;;;;12.66;75.17;100057.97;5111337;28;20070;-89
2023/03/28 04:48:19;;;;;;;4.60;3.03;;;;;;;12.55;75.44;100062.84;5111903;28;20553;-89
2023/03/28 04:50:45;;;;;;;3.05;2.78;;;;;;;12.68;75.41;100078.16;5111673;28;20020;-88
2023/03/28 04:53:12;;;;;;;4.03;3.13;;;;;;;12.62;75.23;100073.59;5096151;28;20053;-89
2023/03/28 04:55:38;;;;;;;4.07;2.75;;;;;;;12.67;75.20;100088.59;5094184;28;20019;-88
2023/03/28 04:58:05;;;;;;;3.13;2.83;;;;;;;12.70;75.26;100094.81;5097992;28;20563;-89
2023/03/28 05:00:31;;;;;;;3.55;2.70;;;;;;;12.64;75.14;100081.53;5075106;28;20016;-89
2023/03/28 05:03:03;;;;;;;2.85;2.42;;;;;;;12.36;74.42;100029.91;5102905;28;20606;-88
2023/03/28 05:05:30;;;;;;;3.78;2.80;;;;;;;12.70;73.93;100096.53;5108217;28;20046;-88
2023/03/28 05:07:59;;;;;;;2.90;2.60;;;;;;;12.44;73.76;100046.75;5091202;28;20104;-88
2023/03/28 05:10:25;;;;;;;3.30;2.20;;;;;;;12.69;73.85;100090.41;5106699;28;20076;-88
2023/03/28 05:12:51;;;;;;;2.83;2.53;;;;;;;12.67;73.83;100102.56;5103500;28;20823;-88
2023/03/28 05:15:18;;;;;;;3.22;2.80;;;;;;;12.53;73.15;100061.91;5085527;28;20038;-91
2023/03/28 05:17:43;;;;;;;2.80;2.50;;;;;;;12.48;73.77;100066.97;5105020;28;20493;-89
2023/03/28 05:20:10;;;;;;;3.25;2.70;;;;;;;12.51;73.62;100054.00;5110389;28;20042;-90
2023/03/28 05:22:37;;;;;;;3.33;2.58;;;;;;;12.36;73.55;100037.75;5096780;28;20023;-88
2023/03/28 05:25:06;;;;;;;3.80;2.50;;;;;;;12.46;73.57;100054.69;5095122;28;20031;-91
2023/03/28 05:27:33;;;;;;;2.78;2.35;;;;;;;12.65;73.72;100093.75;5078795;28;20040;-88
2023/03/28 05:30:00;;;;;;;3.33;2.80;;;;;;;12.37;74.40;100057.88;5093324;28;20031;-89
2023/03/28 05:32:26;;;;;;;2.95;2.65;;;;;;;12.68;73.76;100111.31;5088921;27;20028;-90
2023/03/28 05:34:51;;;;;;;;;;;;;;;12.68;73.74;100116.53;5096607;27;20052;-90
2023/03/28 05:37:17;;;;;;;3.05;2.70;;;;;;;12.54;73.85;100103.88;5076546;28;19916;-90
2023/03/28 05:39:44;;;;;;;2.50;2.28;;;;;;;12.53;73.60;100111.66;5079715;28;20035;-89
2023/03/28 05:42:10;;;;;;;3.00;2.70;;;;;;;12.60;74.18;100113.69;5076439;28;20032;-90
2023/03/28 05:44:36;;;;;;;3.80;2.60;;;;;;;12.11;73.60;100046.50;5107271;28;20489;-91
2023/03/28 05:47:01;;;;;;;2.38;2.17;;;;;;;12.41;73.18;100099.94;5079444;28;20100;-90
2023/03/28 05:49:28;;;;;;;5.68;2.50;;;;;;;12.45;73.14;100127.13;5069224;28;20036;-91
2023/03/28 05:51:53;;;;;;;2.85;2.55;;;;;;;12.62;73.17;100151.28;5088810;28;20019;-87
2023/03/28 05:54:19;;;;;;;2.50;2.30;;;;;;;12.38;72.73;100126.00;5102806;28;20039;-88
2023/03/28 05:56:45;;;;;;;2.63;2.42;;;;;;;12.22;72.89;100094.88;5086216;28;20106;-88
2023/03/28 05:59:10;;;;;;;7.90;2.80;;;;;;;12.30;73.35;100110.88;5079486;28;20512;-87
2023/03/28 06:01:38;;;;;;;3.95;2.65;;;;;;;12.56;73.22;100178.16;5099314;28;20061;-88
2023/03/28 06:04:04;;;;;;;3.00;2.50;;;;;;;12.38;74.39;100131.25;5099358;28;20043;-88
2023/03/28 06:06:31;;;;;;;4.25;2.40;;;;;;;12.26;72.87;100117.69;5089875;28;20020;-89
2023/03/28 06:08:58;;;;;;;2.67;2.40;;;;;;;12.43;72.96;100162.84;5083613;28;20027;-89
2023/03/28 06:11:23;;;;;;;;;;;;;;;12.59;72.88;100170.41;5075511;28;20097;-89
2023/03/28 06:13:49;;;;;;;2.88;2.47;;;;;;;12.46;73.64;100151.56;5111281;28;20369;-89
2023/03/28 06:16:15;;;;;;;2.85;2.53;;;;;;;12.19;72.91;100118.28;5057180;28;20020;-88
2023/03/28 06:18:40;;;;;;;2.53;2.33;;;;;;;12.63;73.34;100176.63;5071816;28;20035;-89
2023/03/28 06:21:06;;;;;;;3.28;2.38;;;;;;;12.60;73.09;100184.41;5085183;28;20085;-88
2023/03/28 06:23:32;;;;;;;5.18;2.85;;;;;;;12.46;73.09;100172.53;5055938;28;20036;-89
2023/03/28 06:25:57;;;;;;;3.78;2.65;;;;;;;12.42;73.22;100164.56;5086046;28;20433;-90
2023/03/28 06:28:24;;;;;;;2.78;2.50;;;;;;;12.53;73.08;100187.59;5086164;28;20141;-89
2023/03/28 06:30:49;;;;;;;3.53;2.75;;;;;;;12.58;73.18;100200.03;5104746;28;20052;-90
2023/03/28 06:33:15;;;;;;;3.28;2.70;;;;;;;12.59;73.39;100196.59;5069910;28;20074;-90
2023/03/28 06:35:41;;;;;;;2.95;2.65;;;;;;;12.43;73.61;100195.13;5056211;28;20058;-91
2023/03/28 06:38:06;;;;;;;3.22;2.67;;;;;;;12.45;73.23;100183.84;5056180;28;20036;-89
2023/03/28 06:40:32;;;;;;;3.20;2.60;;;;;;;12.43;73.59;100202.09;5073134;28;20028;-90
2023/03/28 06:42:58;;;;;;;3.05;2.55;;;;;;;12.43;72.90;100213.47;5065493;28;20498;-90
2023/03/28 06:45:23;;;;;;;3.30;2.53;;;;;;;12.58;73.04;100236.72;5050539;28;20123;-90
2023/03/28 06:47:50;;;;;;;2.67;2.47;;;;;;;12.50;73.30;100225.06;5056713;28;20468;-90
2023/03/28 06:50:16;;;;;;;3.55;2.60;;;;;;;12.49;73.05;100228.53;5071482;28;20024;-88
2023/03/28 06:52:45;;;;;;;2.90;2.58;;;;;;;12.58;73.12;100252.44;5045266;28;20024;-91
2023/03/28 06:55:11;;;;;;;5.03;2.88;;;;;;;12.50;73.15;100235.53;5056009;28;20036;-91
2023/03/28 06:57:37;;;;;;;4.22;2.60;;;;;;;12.46;72.90;100227.50;5073601;28;20508;-90
2023/03/28 07:00:06;;;;;;;3.58;2.90;;;;;;;12.43;72.96;100223.06;5056393;28;20043;-91
2023/03/28 07:02:31;;;;;;;3.28;2.70;;;;;;;12.37;73.88;100218.47;5056945;28;20036;-90
2023/03/28 07:04:57;;;;;;;3.35;2.42;;;;;;;12.54;72.71;100237.44;5087940;28;20025;-90
2023/03/28 07:07:24;;;;;;;3.05;2.75;;;;;;;12.38;73.11;100216.72;5080385;28;20469;-91
2023/03/28 07:09:53;;;;;;;3.08;2.78;;;;;;;12.30;73.93;100189.41;5077046;28;20028;-91
2023/03/28 07:12:20;;;;;;;3.38;2.60;;;;;;;12.38;73.31;100191.47;5080794;28;20131;-90
2023/03/28 07:14:46;;;;;;;3.00;2.60;;;;;;;12.34;72.93;100200.03;5084011;28;20382;-91
2023/03/28 07:17:12;;;;;;;3.33;2.80;;;;;;;12.55;72.92;100235.69;5091220;28;20106;-90
2023/03/28 07:19:47;;;;;;;2.70;2.50;;;;;;;12.28;73.14;100189.34;5088458;28;20121;-91
2023/03/28 07:22:13;;;;;;;2.63;2.40;;;;;;;12.29;72.77;100211.16;5087471;28;20032;-91
2023/03/28 07:24:40;;;;;;;3.30;2.30;;;;;;;12.34;72.25;100231.47;5060113;28;20031;-91
2023/03/28 07:27:08;;;;;;;3.08;2.58;;;;;;;12.32;72.88;100234.81;5076780;28;20051;-90
2023/03/28 07:29:36;;;;;;;3.08;2.63;;;;;;;12.37;72.57;100254.25;5056850;28;20024;-91
2023/03/28 07:32:02;;;;;;;3.00;2.45;;;;;;;12.13;72.39;100233.25;5088301;28;20111;-90
2023/03/28 07:34:28;;;;;;;5.32;2.70;;;;;;;12.47;72.87;100279.94;5074388;28;20028;-90
2023/03/28 07:36:54;;;;;;;3.17;2.85;;;;;;;12.39;72.07;100261.31;5070598;28;20073;-90
2023/03/28 07:39:26;;;;;;;;;;;;;;;12.45;72.51;100283.34;5072913;28;20027;-89
2023/03/28 07:41:52;;;;;;;3.65;2.63;;;;;;;12.35;72.52;100264.66;5066700;28;19927;-90
2023/03/28 07:44:17;;;;;;;3.67;2.88;;;;;;;12.33;72.76;100249.72;5053967;28;20024;-88
2023/03/28 07:46:43;;;;;;;2.60;2.40;;;;;;;12.30;72.67;100255.72;5068599;28;20120;-88
2023/03/28 07:49:09;;;;;;;3.30;2.70;;;;;;;12.11;72.38;100229.69;5056067;28;20110;-89
2023/03/28 07:51:35;;;;;;;3.55;2.38;;;;;;;12.38;72.53;100269.09;5054977;28;20047;-89
2023/03/28 07:54:00;;;;;;;2.72;2.47;;;;;;;12.02;72.93;100227.56;5073735;28;20020;-89
2023/03/28 07:56:26;;;;;;;4.55;2.85;;;;;;;12.31;73.14;100275.81;5075372;28;20067;-89
2023/03/28 07:58:52;;;;;;;4.25;3.10;;;;;;;12.12;73.01;100252.38;5039455;28;20036;-88
2023/03/28 08:01:21;;;;;;;2.78;2.47;;;;;;;12.14;73.25;100266.44;5055593;28;20514;-90
2023/03/28 08:03:48;;;;;;;2.95;2.65;;;;;;;12.46;73.26;100351.47;5080317;28;20024;-89
2023/03/28 08:06:14;;;;;;;3.42;2.65;;;;;;;12.16;72.97;100307.53;5075412;28;20032;-90
2023/03/28 08:08:40;;;;;;;2.60;2.40;;;;;;;12.48;73.48;100376.00;5075415;28;20107;-89
2023/03/28 08:11:10;;;;;;;2.83;2.28;;;;;;;12.31;73.19;100340.41;5062281;28;20063;-90
2023/03/28 08:13:36;;;;;;;2.75;2.47;;;;;;;12.21;72.31;100336.50;5067747;28;20056;-90
2023/03/28 08:16:06;;;;;;;2.85;2.55;;;;;;;12.41;72.75;100361.75;5086960;28;20105;-92
2023/03/28 08:18:33;;;;;;;3.08;2.55;;;;;;;12.43;72.29;100374.94;5082939;28;20489;-90
2023/03/28 08:21:02;;;;;;;3.63;2.40;;;;;;;12.35;72.40;100378.97;5075564;28;20032;-91
2023/03/28 08:23:28;;;;;;;2.97;2.60;;;;;;;12.33;72.89;100378.91;5076157;28;20020;-91
2023/03/28 08:26:03;;;;;;;2.60;2.40;;;;;;;12.26;73.55;100355.03;5062820;28;20028;-91
2023/03/28 08:28:32;;;;;;;3.28;2.65;;;;;;;12.14;72.58;100337.09;5076405;28;20032;-91
2023/03/28 08:31:12;;;;;;;2.70;2.50;;;;;;;12.39;72.53;100387.00;5093005;28;20494;-91
2023/03/28 08:33:39;;;;;;;4.47;2.50;;;;;;;12.38;72.54;100389.53;5076212;28;20485;-90
2023/03/28 08:36:06;;;;;;;4.47;2.40;;;;;;;12.22;72.79;100365.38;5087295;28;20119;-91
2023/03/28 08:38:37;;;;;;;2.67;2.38;;;;;;;12.42;72.79;100395.00;5073729;28;20116;-91
2023/03/28 08:41:18;;;;;;;3.05;2.75;;;;;;;12.44;73.47;100400.28;5075691;28;20024;-91
2023/03/28 08:44:12;;;;;;;4.15;2.50;;;;;;;12.32;72.96;100392.81;5093774;28;20028;-91
2023/03/28 08:46:41;;;;;;;3.08;2.40;;;;;;;12.47;72.90;100413.50;5083998;28;20020;-91
2023/03/28 08:49:17;;;;;;;2.95;2.45;;;;;;;12.40;73.09;100420.22;5094332;28;20073;-91
2023/03/28 08:51:50;;;;;;;3.05;2.67;;;;;;;12.44;72.57;100421.22;5112733;28;20381;-90
2023/03/28 08:54:36;;;;;;;3.35;2.40;;;;;;;12.36;72.97;100413.06;5112259;28;20038;-89
2023/03/28 08:57:04;;;;;;;3.00;2.70;;;;;;;12.36;73.27;100410.47;5111894;28;20504;-89
2023/03/28 09:00:15;;;;;;;2.88;2.60;;;;;;;12.50;73.40;100436.31;5083488;28;20032;-89
2023/03/28 09:02:42;;;;;;;2.67;2.45;;;;;;;12.35;73.48;100420.84;5080039;28;20040;-90
2023/03/28 09:05:15;;;;;;;2.47;2.28;;;;;;;12.49;73.29;100444.97;5110984;28;20027;-89
2023/03/28 09:07:59;;;;;;;2.72;2.50;;;;;;;12.41;73.15;100448.19;5102262;28;20408;-90
2023/03/28 09:10:34;;;;;;;2.70;2.40;;;;;;;12.48;73.24;100451.06;5100041;28;20055;-87
2023/03/28 09:13:05;;;;;;;2.78;2.47;;;;;;;12.48;72.80;100448.44;5097855;28;20098;-90
2023/03/28 09:15:37;;;;;;;2.60;2.40;;;;;;;12.51;72.62;100459.03;5112768;28;20039;-89
2023/03/28 09:18:30;;;;;;;2.67;2.30;;;;;;;12.35;73.36;100431.31;5098002;28;20023;-90
2023/03/28 09:21:24;;;;;;;3.72;2.70;;;;;;;12.41;73.14;100456.03;5111262;28;20031;-90
2023/03/28 09:23:55;;;;;;;2.90;2.53;;;;;;;12.45;72.60;100449.22;5075068;28;20036;-89
2023/03/28 09:26:33;;;;;;;2.80;2.60;;;;;;;12.43;73.06;100454.38;5099396;28;20034;-90
2023/03/28 09:29:03;;;;;;;3.03;2.47;;;;;;;12.49;72.58;100458.97;5111020;28;20023;-87
2023/03/28 09:31:32;;;;;;;3.25;2.42;;;;;;;12.31;72.57;100434.66;5110868;28;20077;-88
2023/03/28 09:34:00;;;;;;;3.08;2.63;;;;;;;12.45;72.99;100464.03;5107075;28;20111;-89
2023/03/28 09:36:32;;;;;;;2.60;2.40;;;;;;;12.50;72.33;100478.19;5094253;28;20097;-88
2023/03/28 09:39:04;;;;;;;4.50;3.13;;;;;;;12.45;72.54;100475.41;5093293;28;20444;-91
2023/03/28 09:41:51;;;;;;;2.55;2.33;;;;;;;12.28;72.52;100450.25;5110370;28;20520;-90
2023/03/28 09:44:18;;;;;;;2.72;2.50;;;;;;;12.47;72.79;100478.97;5097157;28;20090;-89
2023/03/28 09:46:47;;;;;;;4.18;2.60;;;;;;;12.38;72.49;100455.94;5081459;28;20047;-90
2023/03/28 09:49:20;;;;;;;3.42;2.42;;;;;;;12.40;72.64;100464.75;5093373;28;20107;-88
2023/03/28 09:51:45;;;;;;;4.78;2.53;;;;;;;12.46;72.92;100469.31;5110554;28;20020;-89
2023/03/28 09:54:11;;;;;;;2.80;2.60;;;;;;;12.33;72.54;100456.56;5111836;28;20087;-89
2023/03/28 09:56:39;;;;;;;4.10;2.72;;;;;;;12.49;72.64;100492.13;5093680;28;20036;-89
2023/03/28 09:59:28;;;;;;;3.25;2.67;;;;;;;12.47;72.55;100488.56;5085553;28;20035;-89
2023/03/28 10:01:56;;;;;;;3.03;2.70;;;;;;;12.48;72.39;100478.13;5086719;28;20123;-89
2023/03/28 10:04:28;;;;;;;2.72;2.53;;;;;;;12.49;72.50;100493.03;5091424;28;20043;-88
2023/03/28 10:07:09;;;;;;;4.10;3.10;;;;;;;12.48;72.38;100491.22;5091413;28;20119;-89
2023/03/28 10:09:50;;;;;;;3.60;2.60;;;;;;;12.50;72.35;100501.78;5106201;28;20071;-85
2023/03/28 10:12:31;;;;;;;3.35;2.70;;;;;;;12.44;72.42;100507.63;5099148;28;20024;-87
2023/03/28 10:14:57;;;;;;;4.07;2.88;;;;;;;12.33;72.48;100495.81;5109401;28;20055;-87
2023/03/28 10:17:34;;;;;;;3.95;2.90;;;;;;;12.38;72.82;100499.53;5109695;28;20050;-85
2023/03/28 10:20:17;;;;;;;3.40;2.60;;;;;;;12.45;72.92;100519.91;5097887;28;20032;-87
2023/03/28 10:22:45;;;;;;;2.92;2.65;;;;;;;12.24;72.86;100498.06;5109718;28;20027;-87
2023/03/28 10:25:16;;;;;;;2.97;2.67;;;;;;;12.41;72.65;100518.88;5110859;28;20020;-87
2023/03/28 10:27:43;;;;;;;3.28;2.65;;;;;;;12.25;72.48;100500.72;5109608;28;20024;-86
2023/03/28 10:30:08;;;;;;;4.13;2.97;;;;;;;12.43;72.39;100538.19;5109384;28;20417;-86
2023/03/28 10:32:34;;;;;;;3.08;2.50;;;;;;;12.38;72.09;100518.78;5110356;28;20024;-87
2023/03/28 10:35:02;;;;;;;3.08;2.78;;;;;;;12.50;72.59;100548.91;5110136;28;20478;-87
2023/03/28 10:37:30;;;;;;;3.05;2.75;;;;;;;12.50;72.52;100548.91;5110252;28;20111;-87
2023/03/28 10:40:05;;;;;;;2.97;2.53;;;;;;;12.50;72.71;100554.16;5110851;28;20398;-87
2023/03/28 10:42:44;;;;;;;4.85;3.05;;;;;;;12.34;72.41;100523.78;5092725;28;20073;-87
2023/03/28 10:45:37;;;;;;;3.45;2.80;;;;;;;12.49;72.56;100563.75;5080200;28;20096;-87
2023/03/28 10:48:29;;;;;;;3.05;2.75;;;;;;;12.50;72.55;100555.03;5082659;28;20492;-87
2023/03/28 10:50:57;;;;;;;3.25;2.58;;;;;;;12.47;72.56;100552.31;5074289;28;20550;-87
2023/03/28 10:53:44;;;;;;;3.13;2.83;;;;;;;12.50;72.58;100557.66;5106537;28;20045;-87
2023/03/28 10:56:40;;;;;;;3.90;2.50;;;;;;;12.48;72.71;100563.66;5115374;28;20031;-86
2023/03/28 10:59:30;;;;;;;3.20;2.90;;;;;;;12.41;72.77;100552.94;5079736;28;20042;-88
2023/03/28 11:02:08;;;;;;;2.72;2.50;;;;;;;12.42;72.68;100559.97;5084325;28;20043;-87
2023/03/28 11:04:53;;;;;;;3.65;2.75;;;;;;;12.20;72.79;100525.81;5107925;28;20030;-87
2023/03/28 11:07:27;;;;;;;3.65;2.90;;;;;;;12.40;73.33;100563.31;5092921;28;20032;-87
2023/03/28 11:10:28;;;;;;;3.40;2.75;;;;;;;12.45;72.77;100569.69;5090259;28;20016;-88
2023/03/28 11:13:05;;;;;;;2.75;2.55;;;;;;;12.41;72.81;100571.25;5096631;28;20044;-86
2023/03/28 11:15:45;;;;;;;3.03;2.70;;;;;;;12.28;72.75;100548.00;5095402;28;20591;-87
2023/03/28 11:18:36;;;;;;;3.05;2.70;;;;;;;12.44;73.01;100578.34;5086700;28;20024;-87
2023/03/28 11:21:52;;;;;;;3.88;2.92;;;;;;;12.34;73.38;100563.97;5080386;28;20378;-87
2023/03/28 11:24:40;;;;;;;2.90;2.60;;;;;;;12.35;73.34;100568.38;5039989;28;20043;-86
2023/03/28 11:27:11;;;;;;;3.30;2.88;;;;;;;12.32;73.43;100560.41;5092336;28;20028;-88
2023/03/28 11:30:07;;;;;;;4.32;3.08;;;;;;;12.34;73.43;100573.53;5084558;28;20046;-87
2023/03/28 11:32:39;;;;;;;3.17;2.88;;;;;;;12.36;73.12;100590.19;5056082;28;20412;-88
2023/03/28 11:35:10;;;;;;;4.15;2.85;;;;;;;12.40;73.17;100589.50;5112806;28;20056;-87
2023/03/28 11:37:44;;;;;;;4.15;2.78;;;;;;;11.87;73.04;100512.09;5089852;28;20118;-88
2023/03/28 11:40:36;;;;;;;3.45;3.15;;;;;;;12.46;72.29;100600.25;5076011;28;20031;-86
2023/03/28 11:43:04;;;;;;;3.20;2.90;;;;;;;12.43;72.62;100606.25;5080666;28;20122;-87
2023/03/28 11:45:41;;;;;;;4.30;2.85;;;;;;;12.37;72.64;100603.38;5074597;28;20034;-87
2023/03/28 11:48:15;;;;;;;3.90;3.38;;;;;;;12.48;72.48;100610.81;5089131;28;20031;-87
2023/03/28 11:50:48;;;;;;;3.90;2.90;;;;;;;12.50;72.56;100625.75;5092444;28;20016;-88